createdAt,value
2023-05-23T00:00:45.008Z,99.90
2023-05-23T00:03:16.396Z,99.90
2023-05-23T00:05:44.670Z,99.90
2023-05-23T00:08:13.996Z,99.90
2023-05-23T00:10:42.057Z,99.90
2023-05-23T00:13:12.437Z,99.90
2023-05-23T00:15:41.692Z,99.90
2023-05-23T00:18:11.077Z,99.90
2023-05-23T00:20:40.795Z,99.90
2023-05-23T00:23:09.884Z,99.90
2023-05-23T00:25:41.264Z,99.90
2023-05-23T00:28:09.576Z,99.90
2023-05-23T00:30:37.589Z,99.90
2023-05-23T00:33:06.297Z,99.90
2023-05-23T00:35:34.284Z,99.90
2023-05-23T00:38:02.299Z,99.90
2023-05-23T00:40:30.535Z,99.90
2023-05-23T00:42:59.933Z,99.90
2023-05-23T00:45:27.974Z,99.90
2023-05-23T00:47:56.555Z,99.90
2023-05-23T00:50:24.958Z,99.90
2023-05-23T00:52:53.141Z,99.90
2023-05-23T00:55:21.341Z,99.90
2023-05-23T00:57:49.483Z,99.90
2023-05-23T01:00:20.011Z,99.90
2023-05-23T01:02:51.288Z,99.90
2023-05-23T01:05:22.329Z,99.90
2023-05-23T01:07:51.645Z,99.90
2023-05-23T01:10:22.946Z,99.90
2023-05-23T01:13:04.916Z,99.90
2023-05-23T01:15:39.363Z,99.90
2023-05-23T01:18:12.200Z,99.90
2023-05-23T01:20:45.179Z,99.90
2023-05-23T01:23:42.204Z,99.90
2023-05-23T01:26:30.669Z,99.90
2023-05-23T01:29:10.210Z,99.90
2023-05-23T01:31:40.673Z,99.90
2023-05-23T01:34:10.271Z,99.90
2023-05-23T01:36:41.791Z,99.90
2023-05-23T01:39:10.218Z,99.90
2023-05-23T01:41:38.422Z,99.90
2023-05-23T01:44:09.039Z,99.90
2023-05-23T01:46:39.206Z,99.90
2023-05-23T01:49:10.718Z,99.90
2023-05-23T01:51:39.134Z,99.90
2023-05-23T01:54:08.002Z,99.90
2023-05-23T01:56:36.602Z,99.90
2023-05-23T01:59:04.826Z,99.90
2023-05-23T02:01:35.474Z,99.90
2023-05-23T02:04:03.636Z,99.90
2023-05-23T02:06:32.759Z,99.90
2023-05-23T02:09:00.797Z,99.90
2023-05-23T02:11:28.854Z,99.90
2023-05-23T02:13:56.887Z,99.90
2023-05-23T02:16:26.201Z,99.90
2023-05-23T02:18:56.395Z,99.90
2023-05-23T02:21:24.609Z,99.90
2023-05-23T02:23:52.586Z,99.90
2023-05-23T02:26:20.630Z,99.90
2023-05-23T02:28:48.703Z,99.90
2023-05-23T02:31:17.339Z,99.90
2023-05-23T02:33:45.654Z,99.90
2023-05-23T02:36:15.027Z,99.90
2023-05-23T02:38:43.034Z,99.90
2023-05-23T02:41:11.179Z,99.90
2023-05-23T02:43:39.529Z,99.90
2023-05-23T02:46:07.762Z,99.90
2023-05-23T02:48:36.040Z,99.90
2023-05-23T02:51:04.259Z,99.90
2023-05-23T02:53:33.660Z,99.90
2023-05-23T02:56:01.830Z,99.90
2023-05-23T02:58:30.000Z,99.90
2023-05-23T03:00:58.032Z,99.90
2023-05-23T03:03:28.769Z,99.90
2023-05-23T03:05:57.582Z,99.90
2023-05-23T03:08:25.816Z,99.90
2023-05-23T03:10:55.231Z,99.90
2023-05-23T03:13:23.264Z,99.90
2023-05-23T03:15:51.411Z,99.90
2023-05-23T03:18:19.435Z,99.90
2023-05-23T03:20:48.088Z,99.90
2023-05-23T03:23:16.437Z,99.90
2023-05-23T03:25:46.159Z,99.90
2023-05-23T03:28:15.559Z,99.90
2023-05-23T03:30:43.557Z,99.90
2023-05-23T03:33:12.225Z,99.90
2023-05-23T03:35:40.394Z,99.90
2023-05-23T03:38:08.663Z,99.90
2023-05-23T03:40:36.665Z,99.90
2023-05-23T03:43:05.396Z,99.90
2023-05-23T03:45:36.334Z,99.90
2023-05-23T03:48:08.853Z,99.90
2023-05-23T03:50:37.019Z,99.90
2023-05-23T03:53:05.097Z,99.90
2023-05-23T03:55:33.199Z,99.90
2023-05-23T03:58:02.435Z,99.90
2023-05-23T04:00:30.623Z,99.90
2023-05-23T04:03:01.861Z,99.90
2023-05-23T04:05:30.758Z,99.90
2023-05-23T04:08:01.151Z,99.90
2023-05-23T04:10:29.247Z,99.90
2023-05-23T04:13:00.733Z,99.90
2023-05-23T04:15:29.048Z,99.90
2023-05-23T04:18:01.102Z,99.90
2023-05-23T04:20:29.192Z,99.90
2023-05-23T04:22:57.210Z,99.90
2023-05-23T04:25:27.343Z,99.90
2023-05-23T04:28:24.514Z,99.90
2023-05-23T04:30:53.562Z,99.90
2023-05-23T04:33:28.255Z,99.90
2023-05-23T04:35:57.271Z,99.90
2023-05-23T04:38:25.407Z,99.90
2023-05-23T04:40:54.691Z,99.90
2023-05-23T04:43:42.674Z,99.90
2023-05-23T04:46:26.803Z,99.90
2023-05-23T04:49:12.948Z,99.90
2023-05-23T04:51:41.376Z,99.90
2023-05-23T04:54:22.540Z,99.90
2023-05-23T04:56:50.842Z,99.90
2023-05-23T04:59:21.046Z,99.90
2023-05-23T05:01:49.072Z,99.90
2023-05-23T05:04:18.441Z,99.90
2023-05-23T05:06:48.072Z,99.90
2023-05-23T05:09:16.157Z,99.90
2023-05-23T05:11:45.042Z,99.90
2023-05-23T05:14:13.042Z,99.90
2023-05-23T05:16:42.766Z,99.90
2023-05-23T05:19:11.162Z,99.90
2023-05-23T05:21:40.794Z,99.90
2023-05-23T05:24:09.669Z,99.90
2023-05-23T05:26:38.063Z,99.90
2023-05-23T05:29:06.795Z,99.90
2023-05-23T05:31:35.938Z,99.90
2023-05-23T05:34:04.137Z,99.90
2023-05-23T05:36:32.596Z,99.90
2023-05-23T05:39:02.194Z,99.90
2023-05-23T05:41:30.266Z,99.90
2023-05-23T05:43:59.009Z,99.90
2023-05-23T05:46:27.086Z,99.90
2023-05-23T05:48:55.458Z,99.90
2023-05-23T05:51:23.765Z,99.90
2023-05-23T05:53:51.931Z,99.90
2023-05-23T05:56:22.596Z,99.90
2023-05-23T05:58:50.663Z,99.90
2023-05-23T06:01:19.073Z,99.90
2023-05-23T06:03:47.287Z,99.90
2023-05-23T06:06:15.602Z,99.90
2023-05-23T06:08:44.232Z,99.90
2023-05-23T06:11:16.523Z,99.90
2023-05-23T06:13:46.137Z,99.90
2023-05-23T06:16:15.201Z,99.90
2023-05-23T06:18:44.517Z,99.90
2023-05-23T06:21:12.509Z,99.90
2023-05-23T06:23:40.550Z,99.90
2023-05-23T06:26:10.772Z,99.90
2023-05-23T06:28:39.680Z,99.90
2023-05-23T06:31:10.896Z,99.90
2023-05-23T06:33:39.143Z,99.90
2023-05-23T06:36:07.422Z,99.90
2023-05-23T06:38:35.505Z,99.90
2023-05-23T06:41:04.343Z,99.90
2023-05-23T06:43:32.918Z,99.90
2023-05-23T06:46:20.767Z,99.90
2023-05-23T06:48:54.284Z,99.90
2023-05-23T06:51:27.628Z,99.90
2023-05-23T06:53:56.520Z,99.90
2023-05-23T06:56:24.694Z,99.90
2023-05-23T06:58:57.697Z,99.90
2023-05-23T07:01:27.860Z,99.90
2023-05-23T07:03:56.084Z,99.90
2023-05-23T07:06:25.667Z,99.90
2023-05-23T07:08:53.712Z,99.90
2023-05-23T07:11:23.458Z,99.90
2023-05-23T07:13:56.002Z,99.90
2023-05-23T07:16:37.969Z,99.90
2023-05-23T07:19:08.323Z,99.90
2023-05-23T07:21:43.181Z,99.90
2023-05-23T07:24:12.186Z,99.90
2023-05-23T07:26:40.267Z,99.90
2023-05-23T07:29:08.276Z,99.90
2023-05-23T07:31:37.838Z,99.90
2023-05-23T07:34:06.026Z,99.90
2023-05-23T07:36:42.364Z,99.90
2023-05-23T07:39:12.986Z,99.90
2023-05-23T07:41:41.112Z,99.90
2023-05-23T07:44:14.927Z,99.90
2023-05-23T07:46:44.415Z,99.90
2023-05-23T07:49:12.492Z,99.90
2023-05-23T07:51:41.694Z,99.90
2023-05-23T07:54:11.689Z,99.90
2023-05-23T07:56:42.231Z,99.90
2023-05-23T07:59:10.268Z,99.90
2023-05-23T08:01:38.432Z,99.90
2023-05-23T08:04:09.765Z,99.90
2023-05-23T08:07:04.053Z,99.90
2023-05-23T08:09:47.583Z,99.90
2023-05-23T08:12:19.384Z,99.90
2023-05-23T08:14:52.169Z,99.90
2023-05-23T08:17:25.549Z,99.90
2023-05-23T08:19:55.764Z,99.90
2023-05-23T08:22:24.325Z,99.90
2023-05-23T08:24:53.269Z,99.90
2023-05-23T08:27:23.720Z,99.90
2023-05-23T08:30:02.892Z,99.90
2023-05-23T08:32:32.215Z,99.90
2023-05-23T08:35:03.530Z,99.90
2023-05-23T08:37:31.967Z,99.90
2023-05-23T08:40:00.054Z,99.90
2023-05-23T08:42:49.348Z,99.90
2023-05-23T08:45:18.102Z,99.90
2023-05-23T08:47:47.889Z,99.90
2023-05-23T08:50:22.015Z,99.90
2023-05-23T08:52:56.704Z,99.90
2023-05-23T08:55:27.781Z,99.90
2023-05-23T08:57:57.658Z,99.90
2023-05-23T09:00:41.776Z,99.90
2023-05-23T09:03:11.647Z,99.90
2023-05-23T09:05:50.753Z,99.90
2023-05-23T09:08:20.340Z,99.90
2023-05-23T09:10:50.865Z,99.90
2023-05-23T09:13:20.420Z,99.90
2023-05-23T09:16:03.709Z,99.90
2023-05-23T09:18:40.187Z,99.90
2023-05-23T09:21:10.941Z,99.90
2023-05-23T09:23:46.129Z,99.90
2023-05-23T09:26:14.938Z,99.90
2023-05-23T09:28:47.263Z,99.90
2023-05-23T09:31:16.432Z,99.90
2023-05-23T09:33:48.776Z,99.90
2023-05-23T09:36:20.415Z,99.90
2023-05-23T09:38:49.114Z,99.90
2023-05-23T09:41:17.314Z,99.90
2023-05-23T09:43:51.780Z,99.90
2023-05-23T09:46:21.926Z,99.90
2023-05-23T09:48:52.256Z,99.90
2023-05-23T09:51:23.577Z,99.90
2023-05-23T09:53:52.994Z,99.90
2023-05-23T09:56:23.523Z,99.90
2023-05-23T09:58:53.029Z,99.90
2023-05-23T10:01:21.833Z,99.90
2023-05-23T10:03:55.943Z,99.90
2023-05-23T10:06:30.900Z,99.90
2023-05-23T10:09:03.581Z,99.90
2023-05-23T10:12:05.139Z,99.90
2023-05-23T10:14:36.403Z,99.90
2023-05-23T10:17:10.165Z,99.90
2023-05-23T10:19:44.666Z,99.90
2023-05-23T10:22:16.160Z,99.80
2023-05-23T10:24:46.456Z,98.10
2023-05-23T10:27:14.809Z,97.90
2023-05-23T10:29:43.142Z,97.90
2023-05-23T10:32:11.959Z,97.50
2023-05-23T10:34:55.527Z,98.20
2023-05-23T10:37:32.719Z,98.60
2023-05-23T10:40:07.078Z,98.50
2023-05-23T10:42:50.979Z,99.60
2023-05-23T10:45:20.613Z,99.70
2023-05-23T10:47:50.650Z,99.80
2023-05-23T10:50:33.824Z,99.80
2023-05-23T10:53:06.532Z,99.90
2023-05-23T10:55:36.566Z,99.90
2023-05-23T10:58:11.702Z,99.90
2023-05-23T11:00:40.014Z,99.90
2023-05-23T11:03:09.986Z,99.90
2023-05-23T11:05:43.452Z,99.90
2023-05-23T11:08:14.745Z,99.90
2023-05-23T11:11:01.713Z,99.90
2023-05-23T11:14:02.430Z,99.00
2023-05-23T11:16:32.422Z,97.00
2023-05-23T11:19:23.135Z,95.10
2023-05-23T11:21:53.306Z,93.80
2023-05-23T11:24:23.106Z,95.00
2023-05-23T11:26:55.448Z,95.90
2023-05-23T11:29:23.528Z,96.50
2023-05-23T11:31:51.556Z,97.40
2023-05-23T11:34:19.957Z,97.40
2023-05-23T11:36:48.026Z,96.90
2023-05-23T11:39:16.490Z,97.20
2023-05-23T11:41:45.824Z,96.80
2023-05-23T11:44:14.423Z,96.20
2023-05-23T11:46:42.395Z,96.30
2023-05-23T11:49:13.696Z,95.90
2023-05-23T11:51:41.782Z,95.40
2023-05-23T11:54:09.801Z,94.90
2023-05-23T11:56:41.734Z,95.00
2023-05-23T11:59:11.157Z,94.90
2023-05-23T12:01:39.347Z,95.40
2023-05-23T12:04:12.695Z,94.40
2023-05-23T12:06:42.015Z,94.10
2023-05-23T12:09:12.622Z,94.10
2023-05-23T12:11:42.090Z,93.60
2023-05-23T12:14:16.580Z,92.60
2023-05-23T12:16:46.961Z,91.20
2023-05-23T12:19:18.354Z,91.40
2023-05-23T12:21:47.585Z,91.50
2023-05-23T12:24:17.537Z,91.90
2023-05-23T12:26:52.767Z,92.50
2023-05-23T12:29:23.128Z,92.80
2023-05-23T12:31:52.495Z,91.70
2023-05-23T12:34:23.645Z,91.10
2023-05-23T12:36:57.233Z,92.30
2023-05-23T12:39:33.643Z,92.10
2023-05-23T12:42:09.465Z,91.40
2023-05-23T12:44:38.826Z,88.70
2023-05-23T12:47:07.238Z,87.70
2023-05-23T12:49:35.305Z,87.60
2023-05-23T12:52:03.312Z,90.00
2023-05-23T12:54:31.276Z,90.00
2023-05-23T12:57:01.514Z,90.90
2023-05-23T12:59:29.511Z,89.90
2023-05-23T13:02:00.542Z,89.40
2023-05-23T13:04:31.056Z,89.60
2023-05-23T13:07:00.234Z,87.60
2023-05-23T13:09:28.340Z,87.50
2023-05-23T13:11:56.842Z,86.80
2023-05-23T13:14:24.960Z,85.60
2023-05-23T13:16:53.227Z,88.50
2023-05-23T13:19:22.652Z,85.50
2023-05-23T13:21:50.872Z,87.60
2023-05-23T13:24:19.011Z,84.80
2023-05-23T13:26:47.072Z,84.90
2023-05-23T13:29:15.115Z,85.20
2023-05-23T13:31:43.333Z,84.80
2023-05-23T13:34:11.413Z,84.10
2023-05-23T13:36:41.094Z,82.90
2023-05-23T13:39:09.127Z,83.90
2023-05-23T13:41:37.204Z,84.00
2023-05-23T13:44:05.330Z,86.80
2023-05-23T13:46:33.406Z,86.90
2023-05-23T13:49:01.495Z,85.00
2023-05-23T13:51:29.506Z,86.80
2023-05-23T13:53:59.071Z,86.80
2023-05-23T13:56:27.151Z,86.50
2023-05-23T13:58:55.127Z,85.50
2023-05-23T14:01:24.401Z,87.30
2023-05-23T14:03:52.438Z,89.20
2023-05-23T14:06:20.848Z,86.10
2023-05-23T14:08:48.841Z,86.10
2023-05-23T14:11:18.267Z,86.20
2023-05-23T14:13:46.259Z,85.50
2023-05-23T14:16:14.272Z,85.00
2023-05-23T14:18:42.342Z,84.60
2023-05-23T14:21:10.365Z,83.70
2023-05-23T14:23:38.387Z,84.90
2023-05-23T14:26:06.737Z,84.50
2023-05-23T14:28:36.544Z,83.60
2023-05-23T14:31:04.596Z,83.30
2023-05-23T14:33:32.825Z,84.30
2023-05-23T14:36:01.266Z,83.00
2023-05-23T14:38:29.287Z,84.70
2023-05-23T14:40:58.925Z,84.10
2023-05-23T14:43:27.012Z,82.80
2023-05-23T14:45:56.493Z,84.10
2023-05-23T14:48:24.509Z,85.70
2023-05-23T14:50:52.798Z,84.90
2023-05-23T14:53:22.350Z,84.60
2023-05-23T14:55:50.541Z,84.30
2023-05-23T14:58:19.266Z,82.90
2023-05-23T15:00:48.441Z,81.70
2023-05-23T15:03:17.840Z,84.10
2023-05-23T15:05:48.421Z,81.90
2023-05-23T15:08:18.090Z,82.50
2023-05-23T15:10:46.383Z,82.80
2023-05-23T15:13:14.465Z,82.70
2023-05-23T15:15:43.002Z,82.40
2023-05-23T15:18:15.142Z,83.80
2023-05-23T15:20:48.679Z,84.10
2023-05-23T15:23:16.785Z,83.80
2023-05-23T15:25:49.618Z,80.50
2023-05-23T15:28:18.251Z,82.20
2023-05-23T15:30:46.282Z,81.20
2023-05-23T15:33:15.847Z,80.50
2023-05-23T15:35:44.135Z,80.70
2023-05-23T15:38:15.077Z,82.00
2023-05-23T15:40:44.356Z,81.30
2023-05-23T15:43:12.656Z,81.20
2023-05-23T15:45:40.736Z,80.30
2023-05-23T15:48:08.792Z,81.30
2023-05-23T15:50:36.922Z,84.80
2023-05-23T15:53:05.193Z,86.10
2023-05-23T15:55:34.711Z,88.20
2023-05-23T15:58:02.711Z,86.60
2023-05-23T16:00:30.734Z,86.40
2023-05-23T16:03:02.241Z,84.00
2023-05-23T16:05:30.387Z,82.90
2023-05-23T16:07:58.403Z,83.50
2023-05-23T16:10:26.433Z,85.50
2023-05-23T16:12:55.803Z,84.20
2023-05-23T16:15:23.879Z,85.30
2023-05-23T16:17:51.940Z,87.30
2023-05-23T16:20:20.369Z,87.20
2023-05-23T16:22:48.438Z,86.80
2023-05-23T16:25:16.461Z,86.60
2023-05-23T16:27:44.488Z,85.30
2023-05-23T16:30:14.141Z,87.20
2023-05-23T16:32:42.284Z,89.50
2023-05-23T16:35:11.276Z,87.80
2023-05-23T16:37:39.512Z,86.30
2023-05-23T16:40:08.804Z,85.30
2023-05-23T16:42:37.856Z,83.70
2023-05-23T16:45:06.684Z,83.90
2023-05-23T16:47:36.280Z,85.20
2023-05-23T16:50:05.082Z,86.00
2023-05-23T16:52:33.191Z,86.30
2023-05-23T16:55:01.299Z,87.10
2023-05-23T16:57:29.303Z,88.40
2023-05-23T16:59:59.648Z,88.80
2023-05-23T17:02:27.735Z,90.10
2023-05-23T17:04:57.150Z,88.20
2023-05-23T17:07:25.180Z,86.70
2023-05-23T17:09:53.181Z,85.90
2023-05-23T17:12:21.168Z,86.50
2023-05-23T17:14:49.840Z,86.30
2023-05-23T17:17:17.990Z,86.90
2023-05-23T17:19:46.288Z,89.10
2023-05-23T17:22:15.776Z,89.90
2023-05-23T17:24:43.747Z,90.60
2023-05-23T17:27:11.831Z,90.60
2023-05-23T17:29:39.815Z,91.00
2023-05-23T17:32:08.688Z,90.50
2023-05-23T17:34:36.839Z,91.10
2023-05-23T17:37:05.014Z,90.60
2023-05-23T17:39:34.419Z,90.70
2023-05-23T17:42:02.420Z,91.00
2023-05-23T17:44:30.564Z,90.20
2023-05-23T17:46:58.673Z,90.40
2023-05-23T17:49:26.934Z,90.70
2023-05-23T17:51:54.931Z,90.50
2023-05-23T17:54:23.025Z,90.90
2023-05-23T17:56:52.679Z,90.90
2023-05-23T17:59:20.835Z,91.10
2023-05-23T18:01:48.814Z,91.80
2023-05-23T18:04:16.869Z,91.90
2023-05-23T18:06:44.886Z,91.80
2023-05-23T18:09:12.909Z,91.70
2023-05-23T18:11:43.091Z,91.40
2023-05-23T18:14:13.465Z,91.30
2023-05-23T18:16:42.293Z,91.60
2023-05-23T18:19:10.526Z,92.00
2023-05-23T18:21:38.552Z,91.90
2023-05-23T18:24:07.452Z,91.10
2023-05-23T18:26:40.137Z,91.70
2023-05-23T18:29:08.246Z,92.00
2023-05-23T18:31:37.815Z,92.10
2023-05-23T18:34:06.539Z,92.10
2023-05-23T18:36:34.782Z,92.40
2023-05-23T18:39:04.448Z,92.40
2023-05-23T18:41:32.569Z,92.70
2023-05-23T18:44:00.923Z,92.80
2023-05-23T18:46:30.056Z,93.00
2023-05-23T18:48:59.502Z,93.20
2023-05-23T18:51:28.599Z,92.80
2023-05-23T18:53:56.583Z,93.00
2023-05-23T18:56:24.563Z,93.30
2023-05-23T18:58:52.595Z,93.60
2023-05-23T19:01:21.397Z,93.60
2023-05-23T19:03:49.741Z,94.00
2023-05-23T19:06:19.217Z,94.00
2023-05-23T19:08:47.358Z,94.10
2023-05-23T19:11:15.721Z,94.60
2023-05-23T19:13:43.757Z,94.80
2023-05-23T19:16:11.814Z,95.00
2023-05-23T19:18:39.840Z,95.20
2023-05-23T19:21:07.879Z,95.30
2023-05-23T19:23:37.281Z,95.80
2023-05-23T19:26:05.372Z,95.70
2023-05-23T19:28:33.367Z,96.00
2023-05-23T19:31:01.398Z,96.40
2023-05-23T19:33:29.407Z,96.60
2023-05-23T19:35:57.475Z,97.30
2023-05-23T19:38:25.511Z,97.90
2023-05-23T19:40:54.884Z,98.30
2023-05-23T19:43:22.932Z,98.50
2023-05-23T19:45:50.949Z,98.30
2023-05-23T19:48:19.014Z,97.80
2023-05-23T19:50:47.525Z,98.10
2023-05-23T19:53:15.661Z,98.00
2023-05-23T19:55:43.841Z,98.20
2023-05-23T19:58:13.384Z,98.30
2023-05-23T20:00:41.714Z,99.20
2023-05-23T20:03:10.080Z,99.20
2023-05-23T20:05:39.355Z,99.40
2023-05-23T20:08:08.073Z,99.40
2023-05-23T20:10:36.412Z,99.90
2023-05-23T20:13:11.283Z,99.90
2023-05-23T20:15:40.905Z,99.90
2023-05-23T20:18:09.226Z,99.90
2023-05-23T20:20:37.478Z,99.90
2023-05-23T20:23:07.479Z,99.90
2023-05-23T20:25:35.722Z,99.90
2023-05-23T20:28:04.870Z,99.90
2023-05-23T20:30:32.990Z,99.90
2023-05-23T20:33:09.482Z,99.90
2023-05-23T20:35:41.636Z,99.90
2023-05-23T20:38:13.907Z,99.90
2023-05-23T20:40:43.389Z,99.90
2023-05-23T20:43:11.785Z,99.90
2023-05-23T20:45:39.988Z,99.90
2023-05-23T20:48:09.598Z,99.90
2023-05-23T20:50:38.597Z,99.90
2023-05-23T20:53:07.223Z,99.90
2023-05-23T20:55:35.805Z,99.90
2023-05-23T20:58:03.956Z,99.90
2023-05-23T21:00:32.063Z,99.90
2023-05-23T21:03:00.238Z,99.90
2023-05-23T21:05:30.067Z,99.90
2023-05-23T21:07:58.280Z,99.90
2023-05-23T21:10:27.353Z,99.90
2023-05-23T21:12:55.616Z,99.90
2023-05-23T21:15:23.909Z,99.90
2023-05-23T21:17:51.966Z,99.90
2023-05-23T21:20:21.623Z,99.90
2023-05-23T21:22:51.034Z,99.90
2023-05-23T21:25:19.280Z,99.90
2023-05-23T21:27:47.282Z,99.90
2023-05-23T21:30:15.911Z,99.90
2023-05-23T21:32:44.710Z,99.90
2023-05-23T21:35:12.843Z,99.90
2023-05-23T21:37:40.875Z,99.90
2023-05-23T21:40:11.494Z,99.90
2023-05-23T21:42:39.524Z,99.90
2023-05-23T21:45:08.779Z,99.90
2023-05-23T21:47:36.891Z,99.90
2023-05-23T21:50:05.241Z,99.90
2023-05-23T21:52:33.242Z,99.90
2023-05-23T21:55:01.393Z,99.90
2023-05-23T21:57:30.808Z,99.90
2023-05-23T21:59:58.815Z,99.90
2023-05-23T22:02:26.910Z,99.90
2023-05-23T22:04:55.042Z,99.90
2023-05-23T22:07:25.278Z,99.90
2023-05-23T22:09:54.474Z,99.90
2023-05-23T22:12:22.503Z,99.90
2023-05-23T22:14:51.880Z,99.90
2023-05-23T22:17:22.658Z,99.90
2023-05-23T22:19:51.933Z,99.90
2023-05-23T22:22:20.542Z,99.90
2023-05-23T22:24:48.624Z,99.90
2023-05-23T22:27:16.598Z,99.90
2023-05-23T22:29:44.624Z,99.90
2023-05-23T22:32:13.963Z,99.90
2023-05-23T22:34:41.923Z,99.90
2023-05-23T22:37:10.128Z,99.90
2023-05-23T22:39:38.132Z,99.90
2023-05-23T22:42:06.790Z,99.90
2023-05-23T22:44:34.777Z,99.90
2023-05-23T22:47:03.923Z,99.90
2023-05-23T22:49:34.271Z,99.90
2023-05-23T22:52:02.475Z,99.90
2023-05-23T22:54:30.494Z,99.90
2023-05-23T22:56:58.493Z,99.90
2023-05-23T22:59:26.573Z,99.90
2023-05-23T23:01:54.593Z,99.90
2023-05-23T23:04:23.648Z,99.90
2023-05-23T23:06:53.649Z,99.90
2023-05-23T23:09:21.848Z,99.90
2023-05-23T23:11:49.859Z,99.90
2023-05-23T23:14:17.861Z,99.90
2023-05-23T23:16:46.333Z,99.90
2023-05-23T23:19:14.348Z,99.90
2023-05-23T23:21:42.393Z,99.90
2023-05-23T23:24:11.986Z,99.90
2023-05-23T23:26:40.055Z,99.90
2023-05-23T23:29:08.318Z,99.90
2023-05-23T23:31:36.584Z,99.90
2023-05-23T23:34:04.702Z,99.90
2023-05-23T23:36:32.746Z,99.90
2023-05-23T23:39:00.777Z,99.90
2023-05-23T23:41:30.113Z,99.90
2023-05-23T23:43:58.102Z,99.90
2023-05-23T23:46:26.164Z,99.90
2023-05-23T23:48:54.220Z,99.90
2023-05-23T23:51:23.712Z,99.90
2023-05-23T23:53:53.451Z,99.90
2023-05-23T23:56:22.754Z,99.90
2023-05-23T23:58:52.149Z,99.90
